Time;durP1;ratioP1;P1;durP2;ratioP2;P2;SDS_P1;SDS_P2;PMS_P1;PMS_P2;Temp;Humidity;BMP_temperature;BMP_pressure;BME280_temperature;BME280_humidity;BME280_pressure;Samples;Min_cycle;Max_cycle;Signal;HPM_P1;HPM_P2
2023/10/17 00:00:32;;;;;;;9.38;4.05;;;7.00;99.90;;;;;;6221048;23;20008;-73
2023/10/17 00:02:59;;;;;;;6.78;3.63;;;7.00;99.90;;;;;;6222585;23;20001;-72
2023/10/17 00:05:25;;;;;;;6.00;3.42;;;6.90;99.90;;;;;;6220404;23;19997;-73
2023/10/17 00:07:51;;;;;;;6.90;3.47;;;6.70;99.90;;;;;;6220223;23;20001;-73
2023/10/17 00:10:19;;;;;;;4.70;2.50;;;6.50;99.90;;;;;;6193723;23;20036;-73
2023/10/17 00:12:50;;;;;;;10.57;3.28;;;6.30;99.90;;;;;;6220271;23;20005;-73
2023/10/17 00:15:28;;;;;;;5.60;2.77;;;6.30;99.90;;;;;;6194734;23;20074;-74
2023/10/17 00:18:03;;;;;;;7.32;2.80;;;6.30;99.90;;;;;;6219740;23;20001;-73
2023/10/17 00:20:37;;;;;;;6.03;3.28;;;6.30;99.90;;;;;;6194711;23;20004;-73
2023/10/17 00:23:07;;;;;;;8.27;3.58;;;6.40;99.90;;;;;;6220218;23;19997;-74
2023/10/17 00:25:33;;;;;;;7.57;3.45;;;6.50;99.90;;;;;;6194296;23;20001;-72
2023/10/17 00:27:58;;;;;;;8.10;3.95;;;6.50;99.90;;;;;;6219768;23;20005;-73
2023/10/17 00:30:29;;;;;;;7.15;4.10;;;6.40;99.90;;;;;;6193803;23;20005;-74
2023/10/17 00:32:55;;;;;;;5.93;3.13;;;6.30;99.90;;;;;;6193647;23;20009;-73
2023/10/17 00:35:25;;;;;;;6.07;3.40;;;6.20;99.90;;;;;;6220057;23;20024;-73
2023/10/17 00:37:57;;;;;;;8.68;3.47;;;6.30;99.90;;;;;;6219494;23;20004;-74
2023/10/17 00:40:34;;;;;;;8.13;3.38;;;6.10;99.90;;;;;;6219920;23;19996;-73
2023/10/17 00:43:04;;;;;;;5.68;2.90;;;6.10;99.90;;;;;;6220182;23;20000;-73
2023/10/17 00:45:32;;;;;;;4.78;2.92;;;6.00;99.90;;;;;;6193520;23;20008;-73
2023/10/17 00:47:59;;;;;;;5.60;3.33;;;6.00;99.90;;;;;;6219710;23;20001;-74
2023/10/17 00:50:26;;;;;;;9.07;3.15;;;5.90;99.90;;;;;;6221049;23;20008;-73
2023/10/17 00:52:52;;;;;;;5.70;3.38;;;5.70;99.90;;;;;;6222219;23;20024;-73
2023/10/17 00:55:18;;;;;;;4.78;2.75;;;5.80;99.90;;;;;;6222428;23;20059;-73
2023/10/17 00:57:45;;;;;;;5.95;2.38;;;5.90;99.90;;;;;;6221235;23;20001;-73
2023/10/17 01:00:16;;;;;;;7.00;3.67;;;6.00;99.90;;;;;;6221565;23;20005;-73
2023/10/17 01:02:46;;;;;;;7.20;3.28;;;6.00;99.90;;;;;;6221633;23;20001;-73
2023/10/17 01:05:12;;;;;;;4.75;3.15;;;6.10;99.90;;;;;;6222124;23;20068;-74
2023/10/17 01:07:40;;;;;;;8.15;3.70;;;6.20;99.90;;;;;;6221700;23;20087;-73
2023/10/17 01:10:16;;;;;;;5.93;2.90;;;6.20;99.90;;;;;;6221548;23;20001;-73
2023/10/17 01:12:53;;;;;;;5.32;2.50;;;6.00;99.90;;;;;;6221566;23;20000;-73
2023/10/17 01:15:20;;;;;;;4.88;2.88;;;5.90;99.90;;;;;;6223801;23;20011;-73
2023/10/17 01:17:46;;;;;;;7.28;3.47;;;5.80;99.90;;;;;;6196202;23;20004;-73
2023/10/17 01:20:15;;;;;;;8.65;3.85;;;6.00;99.90;;;;;;6195426;23;20005;-74
2023/10/17 01:22:44;;;;;;;6.93;3.97;;;6.00;99.90;;;;;;6221846;23;20050;-74
2023/10/17 01:25:24;;;;;;;10.55;4.25;;;6.10;99.90;;;;;;6195378;23;20092;-73
2023/10/17 01:27:50;;;;;;;8.02;3.92;;;6.20;99.90;;;;;;6221542;23;20012;-73
2023/10/17 01:30:16;;;;;;;7.72;3.78;;;6.20;99.90;;;;;;6221095;23;20005;-73
2023/10/17 01:32:42;;;;;;;6.63;4.05;;;6.30;99.90;;;;;;6221328;23;20031;-73
2023/10/17 01:35:09;;;;;;;8.80;3.45;;;6.30;99.90;;;;;;6195214;23;20004;-73
2023/10/17 01:37:36;;;;;;;7.97;4.13;;;6.30;99.90;;;;;;6221039;23;20001;-73
2023/10/17 01:40:08;;;;;;;8.70;3.65;;;6.40;99.90;;;;;;6221231;23;20001;-74
2023/10/17 01:42:34;;;;;;;5.75;3.35;;;6.40;99.90;;;;;;6221381;23;20060;-73
2023/10/17 01:45:00;;;;;;;7.20;3.65;;;6.30;99.90;;;;;;6195293;23;20001;-73
2023/10/17 01:47:26;;;;;;;7.50;3.80;;;6.30;99.90;;;;;;6221310;23;20087;-74
2023/10/17 01:49:51;;;;;;;7.38;4.20;;;6.20;99.90;;;;;;6221418;23;20008;-73
2023/10/17 01:52:17;;;;;;;9.13;3.72;;;6.00;99.90;;;;;;6194861;23;20009;-73
2023/10/17 01:54:47;;;;;;;12.05;4.28;;;6.00;99.90;;;;;;6195051;23;20132;-73
2023/10/17 01:57:13;;;;;;;11.40;4.75;;;6.00;99.90;;;;;;6221166;23;20005;-73
2023/10/17 01:59:38;;;;;;;8.18;3.70;;;6.20;99.90;;;;;;6194987;23;20064;-73
2023/10/17 02:02:04;;;;;;;8.60;3.58;;;6.20;99.90;;;;;;6221255;23;20016;-73
2023/10/17 02:04:34;;;;;;;6.95;4.00;;;6.20;99.90;;;;;;6221311;23;20008;-73
2023/10/17 02:07:00;;;;;;;8.35;3.85;;;6.10;99.90;;;;;;6221206;23;20024;-73
2023/10/17 02:12:00;;;;;;;11.10;4.20;;;6.00;99.90;;;;;;6221802;23;20009;-73
2023/10/17 02:14:26;;;;;;;6.65;3.83;;;6.00;99.90;;;;;;6195478;23;20008;-73
2023/10/17 02:16:52;;;;;;;7.60;3.90;;;6.10;99.90;;;;;;6220954;23;20011;-74
2023/10/17 02:19:31;;;;;;;7.53;3.85;;;6.00;99.90;;;;;;6221026;23;20034;-74
2023/10/17 02:21:58;;;;;;;10.55;3.45;;;6.00;99.90;;;;;;6194803;23;20012;-73
2023/10/17 02:24:25;;;;;;;6.80;3.42;;;6.10;99.90;;;;;;6195931;23;20001;-73
2023/10/17 02:26:58;;;;;;;5.30;3.63;;;6.00;99.90;;;;;;6194693;23;20009;-73
2023/10/17 02:29:26;;;;;;;6.93;3.22;;;5.90;99.90;;;;;;6221317;23;20080;-73
2023/10/17 02:31:55;;;;;;;8.23;4.00;;;5.90;99.90;;;;;;6221435;23;20012;-73
2023/10/17 02:34:29;;;;;;;6.93;3.53;;;6.00;99.90;;;;;;6194919;23;20012;-74
2023/10/17 02:36:56;;;;;;;6.82;2.95;;;5.90;99.90;;;;;;6220012;22;20096;-70
2023/10/17 02:39:21;;;;;;;4.78;3.35;;;5.90;99.90;;;;;;6220746;23;20000;-70
2023/10/17 02:41:57;;;;;;;4.97;3.25;;;5.90;99.90;;;;;;6195102;23;20007;-70
2023/10/17 02:44:24;;;;;;;6.28;3.30;;;5.90;99.90;;;;;;6220696;23;20019;-70
2023/10/17 02:46:50;;;;;;;4.88;3.05;;;5.90;99.90;;;;;;6194599;23;20237;-70
2023/10/17 02:49:16;;;;;;;4.60;3.05;;;5.80;99.90;;;;;;6194434;23;20004;-70
2023/10/17 02:51:42;;;;;;;8.38;3.33;;;5.70;99.90;;;;;;6220662;23;20011;-70
2023/10/17 02:54:13;;;;;;;6.45;3.75;;;5.60;99.90;;;;;;6194336;23;20012;-70
2023/10/17 02:56:46;;;;;;;6.82;3.67;;;5.60;99.90;;;;;;6220559;23;20001;-70
2023/10/17 02:59:12;;;;;;;6.90;4.35;;;5.50;99.90;;;;;;6220310;23;19997;-70
2023/10/17 03:01:39;;;;;;;7.18;3.22;;;5.50;99.90;;;;;;6194674;23;20007;-70
2023/10/17 03:04:10;;;;;;;8.07;3.63;;;5.50;99.90;;;;;;6194202;23;20011;-70
2023/10/17 03:06:40;;;;;;;6.40;3.28;;;5.50;99.90;;;;;;6221031;23;19996;-70
2023/10/17 03:09:16;;;;;;;6.05;3.83;;;5.40;99.90;;;;;;6220543;23;20003;-70
2023/10/17 03:11:51;;;;;;;8.73;3.60;;;5.40;99.90;;;;;;6220519;23;19996;-70
2023/10/17 03:14:24;;;;;;;7.32;3.92;;;5.30;99.90;;;;;;6220877;23;20024;-70
2023/10/17 03:16:54;;;;;;;6.10;3.70;;;5.20;99.90;;;;;;6220140;23;20005;-70
2023/10/17 03:19:27;;;;;;;7.45;3.50;;;5.20;99.90;;;;;;6220253;23;20003;-70
2023/10/17 03:21:54;;;;;;;6.18;3.22;;;5.10;99.90;;;;;;6194120;23;20021;-70
2023/10/17 03:24:39;;;;;;;5.93;3.70;;;5.10;99.90;;;;;;6220104;23;20055;-70
2023/10/17 03:27:07;;;;;;;8.88;3.33;;;5.20;99.90;;;;;;6193912;23;20012;-71
2023/10/17 03:29:36;;;;;;;5.50;3.72;;;5.30;99.90;;;;;;6220275;23;20001;-70
2023/10/17 03:32:10;;;;;;;7.40;3.90;;;5.20;99.90;;;;;;6220098;23;20004;-70
2023/10/17 03:34:37;;;;;;;5.40;3.05;;;5.20;99.90;;;;;;6194239;23;20083;-70
2023/10/17 03:40:16;;;;;;;5.00;3.35;;;5.00;99.90;;;;;;6220826;23;20013;-71
2023/10/17 03:42:44;;;;;;;7.07;3.97;;;5.20;99.90;;;;;;6220478;23;20035;-70
2023/10/17 03:45:26;;;;;;;7.72;3.85;;;5.30;99.90;;;;;;6220183;23;20084;-70
2023/10/17 03:47:53;;;;;;;4.60;2.92;;;5.30;99.90;;;;;;6220194;23;20075;-70
2023/10/17 03:50:34;;;;;;;5.22;3.50;;;5.30;99.90;;;;;;6220404;23;20024;-70
2023/10/17 03:53:06;;;;;;;5.82;3.35;;;5.20;99.90;;;;;;6220286;23;20011;-71
2023/10/17 03:55:35;;;;;;;5.68;3.75;;;5.00;99.90;;;;;;6220143;23;20003;-70
2023/10/17 03:58:01;;;;;;;3.97;2.72;;;5.00;99.90;;;;;;6220189;23;20008;-71
2023/10/17 04:00:28;;;;;;;5.65;2.70;;;5.00;99.90;;;;;;6194364;23;20047;-70
2023/10/17 04:02:53;;;;;;;5.38;3.03;;;5.00;99.90;;;;;;6194254;23;20083;-70
2023/10/17 04:05:23;;;;;;;5.03;2.88;;;5.10;99.90;;;;;;6193903;23;20032;-70
2023/10/17 04:07:52;;;;;;;5.35;2.85;;;5.10;99.90;;;;;;6220313;23;20004;-70
2023/10/17 04:10:20;;;;;;;6.38;3.35;;;5.10;99.90;;;;;;6194044;23;20005;-70
2023/10/17 04:12:49;;;;;;;7.65;3.85;;;5.20;99.90;;;;;;6193910;23;20073;-70
2023/10/17 04:15:19;;;;;;;6.57;3.60;;;5.40;99.90;;;;;;6220279;23;20119;-70
2023/10/17 04:17:46;;;;;;;5.75;3.40;;;5.50;99.90;;;;;;6193820;23;20008;-70
2023/10/17 04:20:12;;;;;;;6.40;3.92;;;5.60;99.90;;;;;;6219837;23;20001;-70
2023/10/17 04:22:38;;;;;;;8.70;4.50;;;5.70;99.90;;;;;;6194138;23;20012;-70
2023/10/17 04:25:21;;;;;;;6.32;4.13;;;5.60;99.90;;;;;;6221787;23;20024;-71
2023/10/17 04:28:00;;;;;;;9.00;4.57;;;5.70;99.90;;;;;;6221815;23;20032;-70
2023/10/17 04:30:47;;;;;;;7.13;4.15;;;5.70;99.90;;;;;;6196745;23;20031;-70
2023/10/17 04:33:12;;;;;;;6.70;3.70;;;5.80;99.90;;;;;;6222004;23;20000;-70
2023/10/17 04:35:46;;;;;;;8.00;4.22;;;5.80;99.90;;;;;;6222049;23;20008;-70
2023/10/17 04:43:48;;;;;;;6.85;3.95;;;5.80;99.90;;;;;;6101667;23;20002;-70
2023/10/17 04:46:16;;;;;;;8.52;4.55;;;5.80;99.90;;;;;;6101445;23;20009;-70
2023/10/17 04:48:46;;;;;;;7.82;3.95;;;5.70;99.90;;;;;;6101130;23;20006;-70
2023/10/17 04:51:20;;;;;;;6.90;4.35;;;5.60;99.90;;;;;;6101126;23;20051;-70
2023/10/17 04:53:48;;;;;;;9.82;4.45;;;5.80;99.90;;;;;;6101146;23;20007;-71
2023/10/17 04:56:16;;;;;;;7.07;4.43;;;5.90;99.90;;;;;;6077033;23;20010;-70
2023/10/17 05:01:36;;;;;;;6.60;4.05;;;5.80;99.90;;;;;;6101262;23;20014;-70
2023/10/17 05:04:13;;;;;;;7.03;4.20;;;5.80;99.90;;;;;;6077946;23;20382;-70
2023/10/17 06:17:48;;;;;;;9.43;4.97;;;5.70;99.90;;;;;;6220760;23;20016;-70
2023/10/17 06:20:16;;;;;;;9.07;5.22;;;5.70;99.90;;;;;;6220930;23;20079;-70
2023/10/17 06:28:27;;;;;;;9.77;5.15;;;5.80;99.90;;;;;;6220687;23;20066;-70
2023/10/17 06:33:37;;;;;;;9.52;5.03;;;5.80;99.90;;;;;;6221038;23;20040;-70
2023/10/17 06:36:25;;;;;;;6.82;4.43;;;5.80;99.90;;;;;;6194972;23;20004;-71
2023/10/17 06:38:51;;;;;;;8.35;4.88;;;5.90;99.90;;;;;;6194610;23;20016;-71
2023/10/17 06:41:38;;;;;;;8.60;4.95;;;5.90;99.90;;;;;;6194348;23;20001;-71
2023/10/17 06:44:05;;;;;;;9.90;4.88;;;6.00;99.90;;;;;;6221133;23;20004;-72
2023/10/17 06:46:40;;;;;;;8.75;5.40;;;6.00;99.90;;;;;;6194397;23;20009;-71
2023/10/17 06:49:08;;;;;;;13.15;5.75;;;6.00;99.90;;;;;;6220501;23;19996;-70
2023/10/17 06:51:38;;;;;;;12.10;6.40;;;6.10;99.90;;;;;;6220608;23;20080;-70
2023/10/17 06:54:08;;;;;;;8.25;5.07;;;6.30;99.90;;;;;;6220550;23;19997;-71
2023/10/17 06:56:39;;;;;;;9.25;4.95;;;6.20;99.90;;;;;;6220651;23;20096;-71
2023/10/17 06:59:35;;;;;;;10.13;4.43;;;6.10;99.90;;;;;;6194198;23;20011;-71
2023/10/17 07:02:10;;;;;;;8.55;4.43;;;6.20;99.90;;;;;;6194753;23;20232;-70
2023/10/17 07:04:37;;;;;;;9.05;4.80;;;6.20;99.90;;;;;;6194902;23;19997;-72
2023/10/17 07:07:04;;;;;;;10.13;5.45;;;6.20;99.90;;;;;;6194067;23;20016;-71
2023/10/17 07:09:37;;;;;;;7.68;4.30;;;6.20;99.90;;;;;;6220860;23;20032;-71
2023/10/17 07:12:04;;;;;;;9.93;4.88;;;6.30;99.90;;;;;;6220542;23;20024;-71
2023/10/17 07:14:29;;;;;;;9.32;5.18;;;6.30;99.90;;;;;;6194560;23;20008;-71
2023/10/17 07:17:00;;;;;;;7.68;4.18;;;6.30;99.90;;;;;;6193756;23;20005;-70
2023/10/17 07:24:33;;;;;;;7.88;4.78;;;6.30;99.90;;;;;;6231252;23;20001;-70
2023/10/17 07:26:59;;;;;;;8.98;4.85;;;6.30;99.90;;;;;;6221023;23;20075;-70
2023/10/17 07:29:24;;;;;;;7.47;4.45;;;6.30;99.90;;;;;;6220180;23;20031;-70
2023/10/17 07:31:54;;;;;;;6.88;4.65;;;6.30;99.90;;;;;;6194014;23;20043;-69
2023/10/17 07:34:24;;;;;;;8.13;4.78;;;6.30;99.90;;;;;;6194130;23;20074;-71
2023/10/17 07:36:58;;;;;;;8.80;4.45;;;6.30;99.90;;;;;;6194316;23;20063;-63
2023/10/17 07:39:36;;;;;;;6.95;4.75;;;6.60;99.90;;;;;;6220201;23;20004;-63
2023/10/17 07:42:03;;;;;;;7.75;4.72;;;6.60;99.90;;;;;;6194014;23;20001;-63
2023/10/17 07:44:34;;;;;;;7.97;4.85;;;6.60;99.90;;;;;;6195126;23;20011;-63
2023/10/17 07:49:35;;;;;;;9.57;5.40;;;6.70;99.90;;;;;;6230520;23;20079;-63
2023/10/17 07:52:03;;;;;;;12.35;5.38;;;6.80;99.90;;;;;;6194172;23;20051;-63
2023/10/17 07:54:29;;;;;;;7.68;5.10;;;6.80;99.90;;;;;;6220082;23;20075;-63
2023/10/17 07:56:55;;;;;;;12.20;5.90;;;6.90;99.90;;;;;;6219923;23;20038;-63
2023/10/17 07:59:30;;;;;;;8.18;4.82;;;6.80;99.90;;;;;;6220271;23;20031;-63
2023/10/17 08:01:59;;;;;;;10.90;5.32;;;7.00;99.90;;;;;;6220214;23;19993;-64
2023/10/17 08:04:30;;;;;;;7.63;4.90;;;7.10;99.90;;;;;;6194236;23;20007;-63
2023/10/17 08:06:56;;;;;;;9.50;4.53;;;7.20;99.90;;;;;;6193786;23;20000;-64
2023/10/17 08:11:54;;;;;;;8.98;5.38;;;7.30;99.90;;;;;;6220968;23;20005;-63
2023/10/17 08:14:32;;;;;;;9.70;4.65;;;7.50;99.90;;;;;;6193838;23;20007;-63
2023/10/17 08:16:58;;;;;;;8.25;5.03;;;7.50;99.90;;;;;;6194971;23;20008;-63
2023/10/17 08:19:29;;;;;;;8.10;4.32;;;7.50;99.90;;;;;;6220106;23;20001;-63
2023/10/17 08:22:09;;;;;;;9.68;5.18;;;7.60;99.90;;;;;;6194217;23;20070;-63
2023/10/17 08:24:40;;;;;;;16.40;5.15;;;7.60;99.90;;;;;;6220406;23;20027;-63
2023/10/17 08:30:05;;;;;;;;;;;7.50;99.90;;;;;;6129856;23;20049;-63
2023/10/17 08:32:39;;;;;;;6.00;3.87;;;7.70;99.90;;;;;;6129081;23;19905;-63
2023/10/17 08:35:19;;;;;;;7.95;4.85;;;7.80;99.90;;;;;;6129077;23;20257;-63
2023/10/17 08:37:45;;;;;;;8.77;4.10;;;7.80;99.90;;;;;;6153007;22;20017;-64
2023/10/17 08:40:31;;;;;;;7.05;4.50;;;7.90;99.90;;;;;;6193936;23;20012;-64
2023/10/17 08:43:00;;;;;;;10.27;4.25;;;7.90;99.90;;;;;;6220763;23;20005;-64
2023/10/17 08:45:26;;;;;;;6.40;3.53;;;7.90;99.90;;;;;;6194496;23;20000;-64
2023/10/17 08:48:00;;;;;;;7.57;4.05;;;8.00;99.90;;;;;;6194190;23;20030;-64
2023/10/17 08:50:30;;;;;;;7.57;4.10;;;8.00;99.90;;;;;;6220297;23;20058;-65
2023/10/17 08:52:59;;;;;;;7.85;4.13;;;8.10;99.90;;;;;;6220310;23;20001;-64
2023/10/17 08:55:26;;;;;;;8.48;4.28;;;8.20;99.90;;;;;;6219976;23;20020;-64
2023/10/17 08:57:52;;;;;;;9.32;5.13;;;8.30;99.90;;;;;;6219808;23;20078;-64
2023/10/17 09:00:24;;;;;;;8.73;4.35;;;8.30;99.90;;;;;;6193810;23;20001;-64
2023/10/17 09:02:57;;;;;;;7.20;3.92;;;8.40;99.90;;;;;;6220319;23;19993;-64
2023/10/17 09:05:26;;;;;;;8.25;4.45;;;8.50;99.90;;;;;;6219796;23;20001;-64
2023/10/17 09:07:55;;;;;;;7.30;3.97;;;8.50;99.90;;;;;;6220185;23;20084;-65
2023/10/17 09:10:37;;;;;;;6.45;4.18;;;8.60;99.90;;;;;;6194850;23;20004;-65
2023/10/17 09:15:56;;;;;;;7.10;4.40;;;8.80;99.90;;;;;;6232239;23;20009;-64
2023/10/17 09:18:29;;;;;;;8.25;4.25;;;8.90;99.90;;;;;;6221536;23;20008;-64
2023/10/17 09:20:56;;;;;;;6.30;3.70;;;9.00;99.90;;;;;;6195521;23;20027;-65
2023/10/17 09:23:27;;;;;;;12.23;5.00;;;9.00;99.90;;;;;;6195865;23;20087;-64
2023/10/17 09:26:01;;;;;;;6.35;4.57;;;9.10;99.90;;;;;;6221687;23;20001;-64
2023/10/17 09:28:28;;;;;;;8.27;4.00;;;9.10;99.90;;;;;;6221566;23;20146;-64
2023/10/17 09:31:16;;;;;;;8.32;4.30;;;9.20;99.90;;;;;;6221638;23;20024;-64
2023/10/17 09:33:48;;;;;;;10.27;4.55;;;9.20;99.90;;;;;;6195291;23;20009;-64
2023/10/17 09:36:17;;;;;;;7.45;4.65;;;9.20;99.90;;;;;;6221897;23;20007;-64
2023/10/17 09:38:45;;;;;;;4.90;3.53;;;9.40;99.90;;;;;;6221663;23;20011;-64
2023/10/17 09:41:18;;;;;;;7.03;3.83;;;9.50;99.90;;;;;;6196213;23;20005;-64
2023/10/17 09:43:45;;;;;;;7.75;4.30;;;9.60;99.90;;;;;;6195550;23;20007;-64
2023/10/17 09:46:14;;;;;;;9.25;4.93;;;9.60;99.90;;;;;;6221530;23;20008;-64
2023/10/17 09:48:42;;;;;;;7.88;4.40;;;9.60;99.90;;;;;;6195891;23;20039;-64
2023/10/17 09:51:13;;;;;;;8.05;4.32;;;9.60;99.90;;;;;;6195802;23;20009;-64
2023/10/17 09:53:40;;;;;;;7.10;4.60;;;9.60;99.90;;;;;;6196240;23;20004;-64
2023/10/17 09:56:19;;;;;;;10.00;5.20;;;9.60;99.90;;;;;;6221529;23;20024;-64
2023/10/17 09:58:50;;;;;;;6.63;4.20;;;9.50;99.90;;;;;;6195080;23;20087;-65
2023/10/17 10:01:20;;;;;;;9.27;5.50;;;9.60;99.90;;;;;;6221318;23;20043;-64
2023/10/17 10:03:53;;;;;;;9.65;4.40;;;9.60;99.90;;;;;;6221579;23;19993;-65
2023/10/17 10:06:22;;;;;;;7.38;4.00;;;9.80;99.90;;;;;;6195039;23;20031;-65
2023/10/17 10:08:47;;;;;;;10.85;4.22;;;9.90;99.90;;;;;;6194953;23;20001;-64
2023/10/17 10:11:15;;;;;;;7.95;3.97;;;10.10;99.90;;;;;;6195000;23;20004;-64
2023/10/17 10:14:11;;;;;;;7.85;4.40;;;10.30;99.90;;;;;;6221236;23;20001;-64
2023/10/17 10:16:53;;;;;;;5.95;3.70;;;10.50;99.90;;;;;;6101343;23;20115;-64
2023/10/17 10:19:22;;;;;;;3.92;2.75;;;10.60;99.90;;;;;;6100485;23;20144;-62
2023/10/17 10:21:58;;;;;;;6.72;3.08;;;10.70;99.90;;;;;;6100950;23;20014;-62
2023/10/17 10:24:28;;;;;;;4.95;2.67;;;10.80;99.90;;;;;;6100582;23;20002;-62
2023/10/17 10:29:37;;;;;;;4.10;1.92;;;10.70;99.90;;;;;;6100537;23;20010;-62
2023/10/17 10:32:06;;;;;;;2.33;1.45;;;10.80;99.90;;;;;;6100997;23;20090;-62
2023/10/17 10:34:36;;;;;;;1.58;1.48;;;10.90;99.90;;;;;;6101068;23;19999;-62
2023/10/17 10:37:08;;;;;;;2.88;1.50;;;11.10;99.90;;;;;;6076136;23;20002;-64
2023/10/17 10:39:35;;;;;;;2.50;1.50;;;11.20;99.90;;;;;;6100337;23;20010;-64
2023/10/17 10:42:05;;;;;;;3.25;1.08;;;11.40;99.90;;;;;;6100491;23;20014;-64
2023/10/17 10:44:40;;;;;;;3.65;1.38;;;11.40;99.90;;;;;;6100402;23;20002;-65
2023/10/17 10:47:06;;;;;;;0.90;0.85;;;11.50;99.90;;;;;;6101298;23;20030;-64
2023/10/17 10:49:31;;;;;;;5.70;1.67;;;11.70;99.90;;;;;;6076301;23;20003;-64
2023/10/17 10:51:58;;;;;;;4.53;1.52;;;11.80;99.90;;;;;;6110639;23;20002;-64
2023/10/17 10:54:50;;;;;;;1.95;1.00;;;12.00;99.90;;;;;;6221398;23;20063;-64
2023/10/17 10:57:26;;;;;;;5.75;1.10;;;12.20;99.90;;;;;;6205657;23;20009;-61
2023/10/17 10:59:52;;;;;;;1.38;1.00;;;12.30;99.90;;;;;;6221143;23;20000;-62
2023/10/17 11:02:20;;;;;;;3.00;1.65;;;12.30;99.90;;;;;;6220693;23;19997;-62
2023/10/17 11:04:47;;;;;;;1.48;1.13;;;12.20;99.90;;;;;;6221060;23;20024;-62
2023/10/17 11:07:23;;;;;;;1.58;1.20;;;12.10;99.90;;;;;;6220586;23;20024;-62
2023/10/17 11:10:03;;;;;;;1.95;1.58;;;12.10;99.90;;;;;;6220785;23;20001;-62
2023/10/17 11:12:28;;;;;;;2.10;1.27;;;12.30;99.90;;;;;;6194851;23;20031;-62
2023/10/17 11:15:21;;;;;;;3.50;1.40;;;12.30;99.90;;;;;;6220608;23;20001;-61
2023/10/17 11:17:47;;;;;;;5.57;1.80;;;12.40;99.90;;;;;;6220567;23;20007;-62
2023/10/17 11:20:17;;;;;;;2.58;1.38;;;12.50;99.90;;;;;;6194225;23;19997;-62
2023/10/17 11:22:46;;;;;;;3.30;1.50;;;12.40;99.90;;;;;;6194494;23;20024;-61
2023/10/17 11:25:13;;;;;;;3.05;1.70;;;12.60;99.90;;;;;;6220461;23;20001;-61
2023/10/17 11:27:53;;;;;;;7.07;1.30;;;12.70;99.90;;;;;;6194593;23;20004;-62
2023/10/17 11:30:20;;;;;;;5.15;1.60;;;13.00;99.90;;;;;;6195666;23;20074;-61
2023/10/17 11:32:47;;;;;;;5.15;2.22;;;13.10;99.90;;;;;;6194023;23;20054;-62
2023/10/17 11:35:29;;;;;;;4.40;2.22;;;13.40;99.90;;;;;;6194191;23;20088;-62
2023/10/17 11:37:56;;;;;;;8.57;3.00;;;13.40;99.90;;;;;;6194660;23;20087;-61
2023/10/17 11:40:29;;;;;;;9.50;2.17;;;13.40;99.90;;;;;;6194243;23;20011;-62
2023/10/17 11:42:57;;;;;;;5.90;1.60;;;13.50;99.90;;;;;;6194429;23;20005;-62
2023/10/17 11:45:33;;;;;;;5.50;1.83;;;13.60;99.90;;;;;;6193974;23;20007;-62
2023/10/17 11:48:06;;;;;;;2.45;1.60;;;13.80;99.90;;;;;;6221056;23;20009;-62
2023/10/17 11:50:34;;;;;;;4.60;2.05;;;13.90;99.90;;;;;;6220268;23;19997;-61
2023/10/17 11:53:09;;;;;;;4.55;2.53;;;14.10;99.90;;;;;;6220300;23;20001;-61
2023/10/17 11:55:45;;;;;;;4.53;2.60;;;14.40;99.90;;;;;;6220305;23;20059;-61
2023/10/17 11:58:19;;;;;;;3.75;2.50;;;14.40;99.90;;;;;;6194390;23;20015;-62
2023/10/17 12:00:44;;;;;;;3.70;2.70;;;14.40;99.90;;;;;;6194174;23;20035;-62
2023/10/17 12:03:10;;;;;;;8.57;2.75;;;14.60;99.90;;;;;;6220172;23;20000;-62
2023/10/17 12:05:38;;;;;;;3.97;1.90;;;14.30;99.90;;;;;;6195209;23;19996;-61
2023/10/17 12:08:04;;;;;;;6.22;2.00;;;14.40;99.90;;;;;;6194751;23;20004;-61
2023/10/17 12:10:30;;;;;;;3.25;1.70;;;14.50;99.90;;;;;;6220062;23;20004;-62
2023/10/17 12:12:58;;;;;;;2.92;2.13;;;14.80;99.90;;;;;;6219933;23;20005;-62
2023/10/17 12:15:25;;;;;;;2.78;1.90;;;14.70;99.90;;;;;;6220225;23;20011;-62
2023/10/17 12:17:52;;;;;;;2.08;1.60;;;14.60;99.90;;;;;;6194067;23;20099;-62
2023/10/17 12:20:25;;;;;;;1.65;1.48;;;14.70;99.90;;;;;;6193974;23;20001;-62
2023/10/17 12:22:55;;;;;;;4.28;2.00;;;14.90;99.90;;;;;;6194093;23;20005;-62
2023/10/17 12:25:23;;;;;;;4.22;1.88;;;14.80;99.90;;;;;;6194109;23;20012;-62
2023/10/17 12:27:52;;;;;;;3.50;1.60;;;14.90;99.90;;;;;;6193935;23;20005;-62
2023/10/17 12:30:27;;;;;;;6.25;2.25;;;14.90;99.90;;;;;;6220268;23;20127;-62
2023/10/17 12:32:55;;;;;;;3.97;2.20;;;15.10;99.90;;;;;;6220131;23;20000;-62
2023/10/17 12:35:21;;;;;;;4.65;1.70;;;15.30;99.90;;;;;;6194605;23;20013;-62
2023/10/17 12:37:50;;;;;;;3.65;1.90;;;15.20;99.90;;;;;;6220025;23;20030;-62
2023/10/17 12:40:21;;;;;;;4.15;2.22;;;15.10;99.90;;;;;;6194168;23;20001;-62
2023/10/17 12:42:47;;;;;;;3.15;1.77;;;15.30;99.90;;;;;;6194075;23;20008;-62
2023/10/17 12:45:17;;;;;;;5.93;2.35;;;15.20;99.90;;;;;;6220992;23;19996;-62
2023/10/17 12:47:43;;;;;;;2.53;1.90;;;15.30;99.90;;;;;;6196072;23;20005;-62
2023/10/17 12:50:11;;;;;;;3.33;1.90;;;15.50;99.90;;;;;;6222010;23;20004;-63
2023/10/17 12:52:37;;;;;;;2.92;2.00;;;15.80;99.90;;;;;;6222012;23;20009;-62
2023/10/17 12:55:04;;;;;;;5.28;1.98;;;16.00;99.90;;;;;;6195899;23;20074;-62
2023/10/17 12:57:29;;;;;;;3.45;1.77;;;16.20;99.90;;;;;;6195611;23;20005;-63
2023/10/17 12:59:59;;;;;;;4.53;2.20;;;16.30;99.90;;;;;;6221992;23;20001;-62
2023/10/17 13:02:30;;;;;;;4.95;2.40;;;16.20;99.90;;;;;;6221865;23;20024;-62
2023/10/17 13:04:55;;;;;;;3.05;2.05;;;16.00;99.90;;;;;;6222169;23;20027;-62
2023/10/17 13:07:23;;;;;;;4.10;2.10;;;16.10;99.90;;;;;;6221861;23;20005;-62
2023/10/17 13:09:49;;;;;;;2.38;1.65;;;15.90;99.90;;;;;;6197051;23;20107;-62
2023/10/17 13:12:14;;;;;;;3.33;2.00;;;15.80;99.90;;;;;;6221779;23;20115;-62
2023/10/17 13:14:40;;;;;;;2.70;1.88;;;16.10;99.90;;;;;;6221850;23;20086;-62
2023/10/17 13:17:09;;;;;;;8.00;3.03;;;16.30;99.90;;;;;;6195434;23;20096;-62
2023/10/17 13:19:40;;;;;;;3.33;1.67;;;16.30;99.90;;;;;;6195557;23;20001;-62
2023/10/17 13:22:08;;;;;;;7.03;2.47;;;16.40;99.90;;;;;;6195554;23;19997;-62
2023/10/17 13:24:34;;;;;;;2.42;1.90;;;16.60;99.90;;;;;;6195912;23;20001;-62
2023/10/17 13:27:00;;;;;;;7.38;2.30;;;16.50;99.90;;;;;;6222063;23;19999;-62
2023/10/17 13:29:26;;;;;;;3.92;2.33;;;16.00;99.90;;;;;;6221699;23;19997;-62
2023/10/17 13:31:51;;;;;;;3.50;2.00;;;16.00;99.90;;;;;;6195294;23;20040;-62
2023/10/17 13:34:22;;;;;;;4.07;2.10;;;15.90;99.90;;;;;;6195376;23;20001;-62
2023/10/17 13:36:48;;;;;;;9.23;3.13;;;16.10;99.90;;;;;;6221672;23;20015;-62
2023/10/17 13:39:13;;;;;;;4.95;2.47;;;16.40;99.90;;;;;;6195803;23;20004;-62
2023/10/17 13:41:39;;;;;;;6.20;2.28;;;16.70;99.90;;;;;;6221946;23;20046;-62
2023/10/17 13:44:05;;;;;;;4.57;2.28;;;16.50;99.90;;;;;;6221597;23;20039;-62
2023/10/17 13:46:35;;;;;;;2.80;1.92;;;16.60;99.90;;;;;;6195415;23;20054;-62
2023/10/17 13:49:00;;;;;;;6.22;2.45;;;16.60;99.90;;;;;;6195126;23;20000;-62
2023/10/17 13:51:34;;;;;;;4.45;2.45;;;16.90;99.90;;;;;;6195441;23;20007;-63
2023/10/17 13:54:00;;;;;;;3.00;2.25;;;16.90;99.90;;;;;;6221569;23;20000;-62
2023/10/17 13:56:27;;;;;;;3.47;2.00;;;16.70;99.90;;;;;;6221067;23;20052;-62
2023/10/17 13:58:53;;;;;;;3.80;2.08;;;16.70;99.90;;;;;;6194916;23;20005;-62
2023/10/17 14:01:27;;;;;;;5.82;2.53;;;16.50;99.90;;;;;;6221376;23;20000;-62
2023/10/17 14:03:57;;;;;;;9.27;2.20;;;16.60;99.90;;;;;;6195274;23;20011;-63
2023/10/17 14:06:23;;;;;;;4.70;2.40;;;16.50;99.90;;;;;;6221712;23;20007;-63
2023/10/17 14:08:49;;;;;;;5.13;2.72;;;16.60;99.90;;;;;;6221236;23;20056;-62
2023/10/17 14:11:18;;;;;;;5.25;2.33;;;16.70;99.90;;;;;;6221650;23;20005;-62
2023/10/17 14:13:49;;;;;;;5.85;2.30;;;16.60;99.90;;;;;;6221150;23;20047;-63
2023/10/17 14:16:15;;;;;;;3.22;2.25;;;16.60;99.90;;;;;;6195073;23;20008;-62
2023/10/17 14:18:46;;;;;;;4.80;2.13;;;16.70;99.90;;;;;;6194902;23;20087;-62
2023/10/17 14:24:00;;;;;;;3.95;2.50;;;16.80;99.90;;;;;;6232019;23;20078;-62
2023/10/17 14:26:30;;;;;;;3.97;2.15;;;16.80;99.90;;;;;;6221237;23;20004;-63
2023/10/17 14:28:56;;;;;;;9.65;2.38;;;16.80;99.90;;;;;;6194843;23;20005;-62
2023/10/17 14:31:25;;;;;;;4.15;2.50;;;16.70;99.90;;;;;;6221468;23;20004;-62
2023/10/17 14:33:55;;;;;;;3.67;2.40;;;16.30;99.90;;;;;;6195670;23;20008;-62
2023/10/17 14:36:21;;;;;;;5.72;2.50;;;16.10;99.90;;;;;;6220987;23;20079;-62
2023/10/17 14:38:50;;;;;;;5.13;2.45;;;15.90;99.90;;;;;;6194874;23;20066;-62
2023/10/17 14:41:16;;;;;;;4.35;2.50;;;16.10;99.90;;;;;;6220952;23;20004;-63
2023/10/17 14:43:43;;;;;;;3.65;2.10;;;16.00;99.90;;;;;;6221374;23;20000;-62
2023/10/17 14:46:10;;;;;;;2.85;2.28;;;15.70;99.90;;;;;;6220957;23;20085;-62
2023/10/17 14:48:36;;;;;;;3.85;2.63;;;15.60;99.90;;;;;;6220944;23;20008;-62
2023/10/17 14:51:02;;;;;;;3.90;2.55;;;15.30;99.90;;;;;;6220826;23;20040;-63
2023/10/17 14:53:28;;;;;;;5.47;2.67;;;15.30;99.90;;;;;;6220916;23;20071;-62
2023/10/17 14:56:04;;;;;;;3.75;2.63;;;15.10;99.90;;;;;;6220797;23;20005;-62
2023/10/17 14:58:31;;;;;;;6.15;3.30;;;15.00;99.90;;;;;;6220805;23;20003;-63
2023/10/17 15:00:57;;;;;;;4.72;2.30;;;15.10;99.90;;;;;;6220838;23;20000;-62